Time;durP1;ratioP1;P1;durP2;ratioP2;P2;SDS_P1;SDS_P2;PMS_P1;PMS_P2;Temp;Humidity;BMP_temperature;BMP_pressure;BME280_temperature;BME280_humidity;BME280_pressure;Samples;Min_cycle;Max_cycle;Signal;HPM_P1;HPM_P2
2023/02/09 00:01:13;;;;;;;;;61.75;53.75;;;;;;;;5046709;28;8923;-83
2023/02/09 00:03:41;;;;;;;;;59.00;51.00;;;;;;;;5044850;28;8859;-82
2023/02/09 00:06:10;;;;;;;;;64.00;54.00;;;;;;;;5051704;28;8865;-83
2023/02/09 00:08:39;;;;;;;;;55.00;50.00;;;;;;;;5051261;28;8844;-84
2023/02/09 00:11:10;;;;;;;;;57.00;51.00;;;;;;;;5046845;28;8831;-82
2023/02/09 00:13:36;;;;;;;;;55.75;48.00;;;;;;;;5046378;28;8829;-82
2023/02/09 00:16:05;;;;;;;;;64.25;52.50;;;;;;;;5046255;28;8933;-81
2023/02/09 00:18:33;;;;;;;;;63.50;53.00;;;;;;;;5051698;28;8829;-82
2023/02/09 00:21:02;;;;;;;;;62.00;53.00;;;;;;;;5047366;28;8980;-83
2023/02/09 00:23:31;;;;;;;;;65.00;51.25;;;;;;;;5050567;28;8999;-83
2023/02/09 00:26:02;;;;;;;;;61.75;50.25;;;;;;;;5046846;28;8875;-83
2023/02/09 00:28:29;;;;;;;;;67.00;53.50;;;;;;;;5051335;28;8859;-84
2023/02/09 00:30:57;;;;;;;;;55.25;47.00;;;;;;;;5043772;28;8908;-83
2023/02/09 00:33:25;;;;;;;;;55.50;51.25;;;;;;;;5045044;28;8903;-84
2023/02/09 00:35:52;;;;;;;;;64.25;52.75;;;;;;;;5043789;28;8940;-83
2023/02/09 00:38:20;;;;;;;;;59.50;53.00;;;;;;;;5046047;28;8878;-84
2023/02/09 00:40:48;;;;;;;;;51.75;45.25;;;;;;;;5044999;28;8847;-84
2023/02/09 00:43:17;;;;;;;;;41.75;39.25;;;;;;;;5049035;28;8874;-84
2023/02/09 00:45:44;;;;;;;;;41.50;41.25;;;;;;;;5046511;28;8848;-84
2023/02/09 00:48:12;;;;;;;;;52.25;47.25;;;;;;;;5030850;28;8987;-85
2023/02/09 00:50:39;;;;;;;;;31.75;31.75;;;;;;;;5043785;28;8897;-84
2023/02/09 00:53:07;;;;;;;;;43.00;39.50;;;;;;;;5051446;28;8975;-84
2023/02/09 00:55:34;;;;;;;;;38.25;38.25;;;;;;;;5052232;28;8854;-84
2023/02/09 00:58:02;;;;;;;;;29.00;27.50;;;;;;;;5052054;28;8973;-84
2023/02/09 01:00:31;;;;;;;;;38.25;38.25;;;;;;;;5047360;28;8831;-82
2023/02/09 01:02:59;;;;;;;;;44.50;43.25;;;;;;;;5056306;28;8876;-83
2023/02/09 01:05:26;;;;;;;;;41.00;40.00;;;;;;;;5060237;28;8868;-83
2023/02/09 01:07:54;;;;;;;;;35.50;33.75;;;;;;;;5053879;28;8882;-83
2023/02/09 01:10:21;;;;;;;;;41.25;40.00;;;;;;;;5052329;28;8872;-82
2023/02/09 01:12:49;;;;;;;;;33.00;33.00;;;;;;;;5051626;28;8872;-83
2023/02/09 01:15:17;;;;;;;;;38.50;37.25;;;;;;;;5052100;28;8867;-83
2023/02/09 01:17:46;;;;;;;;;36.25;34.75;;;;;;;;5046607;28;8861;-84
2023/02/09 01:20:14;;;;;;;;;42.25;41.00;;;;;;;;5051908;28;9004;-83
2023/02/09 01:22:41;;;;;;;;;42.50;41.75;;;;;;;;5051046;28;8862;-84
2023/02/09 01:25:10;;;;;;;;;46.00;43.75;;;;;;;;5050587;28;8991;-84
2023/02/09 01:27:37;;;;;;;;;60.50;50.25;;;;;;;;5051541;28;8847;-84
2023/02/09 01:30:05;;;;;;;;;44.00;42.50;;;;;;;;5046357;28;8869;-83
2023/02/09 01:32:33;;;;;;;;;46.00;42.25;;;;;;;;5050368;28;8871;-84
2023/02/09 01:35:01;;;;;;;;;57.50;50.50;;;;;;;;5053335;28;9679;-84
2023/02/09 01:37:29;;;;;;;;;54.75;50.00;;;;;;;;5054157;28;8849;-84
2023/02/09 01:39:56;;;;;;;;;58.75;51.75;;;;;;;;5049918;28;8995;-83
2023/02/09 01:42:24;;;;;;;;;60.25;51.75;;;;;;;;5050392;28;8979;-83
2023/02/09 01:45:21;;;;;;;;;53.00;47.75;;;;;;;;5052129;28;8865;-83
2023/02/09 01:47:51;;;;;;;;;56.25;50.75;;;;;;;;5051803;28;8834;-84
2023/02/09 01:50:22;;;;;;;;;56.25;50.25;;;;;;;;5055970;28;8822;-85
2023/02/09 01:52:50;;;;;;;;;53.50;48.50;;;;;;;;5053370;28;8940;-85
2023/02/09 01:55:21;;;;;;;;;52.75;48.25;;;;;;;;5049346;28;8973;-83
2023/02/09 01:57:50;;;;;;;;;50.25;46.25;;;;;;;;5053023;28;8962;-84
2023/02/09 02:00:19;;;;;;;;;39.50;36.75;;;;;;;;5044725;28;8910;-84
2023/02/09 02:02:50;;;;;;;;;49.00;45.50;;;;;;;;5027576;28;9003;-83
2023/02/09 02:05:18;;;;;;;;;47.00;45.00;;;;;;;;5030993;28;8965;-84
2023/02/09 02:07:51;;;;;;;;;24.00;23.75;;;;;;;;5027096;28;8817;-83
2023/02/09 02:10:19;;;;;;;;;43.75;42.00;;;;;;;;5031396;28;8845;-83
2023/02/09 02:12:46;;;;;;;;;39.75;39.75;;;;;;;;5034218;28;8858;-83
2023/02/09 02:15:13;;;;;;;;;40.00;37.50;;;;;;;;5012680;28;8884;-83
2023/02/09 02:17:58;;;;;;;;;50.00;46.50;;;;;;;;5030251;28;8993;-85
2023/02/09 02:20:49;;;;;;;;;42.25;42.25;;;;;;;;5027271;28;8861;-84
2023/02/09 02:23:24;;;;;;;;;46.25;43.75;;;;;;;;5026227;28;9612;-84
2023/02/09 02:26:23;;;;;;;;;42.50;42.50;;;;;;;;5032987;28;8853;-83
2023/02/09 02:29:14;;;;;;;;;42.50;38.00;;;;;;;;5026683;28;8871;-84
2023/02/09 02:32:08;;;;;;;;;38.25;37.00;;;;;;;;4994753;28;8819;-84
2023/02/09 02:34:43;;;;;;;;;39.25;37.00;;;;;;;;5027439;28;8969;-84
2023/02/09 02:37:19;;;;;;;;;36.00;35.00;;;;;;;;5028810;28;8958;-84
2023/02/09 02:39:53;;;;;;;;;37.25;37.25;;;;;;;;5026808;28;8883;-84
2023/02/09 02:45:13;;;;;;;;;52.50;47.00;;;;;;;;5031999;28;8842;-84
2023/02/09 02:47:50;;;;;;;;;32.75;32.75;;;;;;;;5031210;28;8838;-83
2023/02/09 02:50:23;;;;;;;;;42.50;39.50;;;;;;;;5029281;28;8841;-83
2023/02/09 02:52:55;;;;;;;;;48.50;47.00;;;;;;;;5031448;28;8967;-83
2023/02/09 02:55:24;;;;;;;;;45.25;45.00;;;;;;;;5027371;28;8845;-83
2023/02/09 02:57:54;;;;;;;;;43.50;41.25;;;;;;;;5030644;28;8881;-82
2023/02/09 03:00:24;;;;;;;;;48.50;46.25;;;;;;;;5011562;28;9588;-82
2023/02/09 03:02:57;;;;;;;;;59.00;51.50;;;;;;;;5005887;28;8847;-82
2023/02/09 03:05:25;;;;;;;;;42.00;40.50;;;;;;;;5007345;28;9010;-82
2023/02/09 03:07:53;;;;;;;;;38.75;38.75;;;;;;;;5009164;28;8873;-82
2023/02/09 03:10:26;;;;;;;;;37.75;37.75;;;;;;;;5008602;28;8962;-83
2023/02/09 03:13:01;;;;;;;;;36.50;35.00;;;;;;;;5008254;28;8842;-82
2023/02/09 03:15:34;;;;;;;;;33.25;33.25;;;;;;;;5007815;28;8885;-82
2023/02/09 03:18:10;;;;;;;;;39.50;37.50;;;;;;;;5007946;28;8877;-83
2023/02/09 03:20:42;;;;;;;;;34.50;34.50;;;;;;;;5004634;28;8965;-82
2023/02/09 03:23:15;;;;;;;;;45.50;43.75;;;;;;;;5006083;28;8980;-81
2023/02/09 03:25:45;;;;;;;;;36.50;36.50;;;;;;;;5007162;28;8852;-82
2023/02/09 03:28:16;;;;;;;;;35.00;33.50;;;;;;;;5004157;28;9645;-82
2023/02/09 03:30:47;;;;;;;;;38.00;38.00;;;;;;;;5006146;28;8812;-82
2023/02/09 03:33:21;;;;;;;;;34.00;34.00;;;;;;;;5007589;28;8851;-83
2023/02/09 03:35:50;;;;;;;;;38.25;38.25;;;;;;;;5010338;28;8886;-82
2023/02/09 03:38:18;;;;;;;;;31.75;31.75;;;;;;;;5007373;28;9594;-83
2023/02/09 03:40:45;;;;;;;;;31.50;31.50;;;;;;;;5008058;28;8966;-83
2023/02/09 03:43:12;;;;;;;;;27.50;25.00;;;;;;;;5005340;28;8857;-82
2023/02/09 03:45:40;;;;;;;;;31.00;28.25;;;;;;;;5015376;28;8845;-83
2023/02/09 03:48:07;;;;;;;;;29.25;29.25;;;;;;;;5011485;28;8908;-84
2023/02/09 03:50:39;;;;;;;;;25.75;25.75;;;;;;;;5008420;28;8879;-83
2023/02/09 03:53:06;;;;;;;;;30.00;30.00;;;;;;;;5009226;28;8855;-83
2023/02/09 03:55:34;;;;;;;;;29.75;29.75;;;;;;;;5007353;28;8864;-83
2023/02/09 03:58:02;;;;;;;;;31.50;31.25;;;;;;;;5007571;28;8858;-82
2023/02/09 04:00:29;;;;;;;;;38.00;33.75;;;;;;;;5023280;28;8899;-82
2023/02/09 04:02:58;;;;;;;;;34.75;31.25;;;;;;;;5032317;28;8941;-83
2023/02/09 04:05:25;;;;;;;;;28.75;28.75;;;;;;;;5024673;28;8991;-83
2023/02/09 04:07:54;;;;;;;;;40.75;35.50;;;;;;;;5034634;28;8887;-83
2023/02/09 04:10:22;;;;;;;;;36.50;36.50;;;;;;;;5041900;28;8875;-83
2023/02/09 04:12:49;;;;;;;;;33.75;30.00;;;;;;;;5045595;28;8844;-82
2023/02/09 04:15:16;;;;;;;;;35.50;35.50;;;;;;;;5040072;28;8994;-83
2023/02/09 04:17:44;;;;;;;;;35.75;35.25;;;;;;;;5046643;28;9005;-82
2023/02/09 04:20:11;;;;;;;;;31.25;31.25;;;;;;;;5040216;28;8820;-83
2023/02/09 04:22:39;;;;;;;;;38.00;37.25;;;;;;;;5044054;28;8948;-83
2023/02/09 04:25:09;;;;;;;;;33.50;32.00;;;;;;;;5043829;28;8974;-83
2023/02/09 04:27:37;;;;;;;;;26.25;24.50;;;;;;;;5047258;28;8883;-83
2023/02/09 04:30:05;;;;;;;;;24.25;19.50;;;;;;;;5045333;28;8865;-83
2023/02/09 04:32:32;;;;;;;;;41.25;36.75;;;;;;;;5040287;28;8844;-83
2023/02/09 04:34:59;;;;;;;;;36.50;36.50;;;;;;;;5049067;28;8935;-84
2023/02/09 04:37:27;;;;;;;;;33.75;33.50;;;;;;;;5048178;28;8864;-83
2023/02/09 04:39:55;;;;;;;;;31.25;29.25;;;;;;;;5048733;28;9060;-84
2023/02/09 04:42:24;;;;;;;;;26.50;24.50;;;;;;;;5046503;28;8870;-84
2023/02/09 04:44:53;;;;;;;;;29.75;29.75;;;;;;;;5047585;28;8921;-84
2023/02/09 04:47:21;;;;;;;;;35.00;33.25;;;;;;;;5046137;28;8894;-81
2023/02/09 04:49:48;;;;;;;;;35.00;35.00;;;;;;;;5045146;28;8869;-82
2023/02/09 04:52:16;;;;;;;;;38.00;36.75;;;;;;;;5041979;28;8888;-82
2023/02/09 04:54:44;;;;;;;;;28.50;28.50;;;;;;;;5029513;28;8848;-82
2023/02/09 04:59:58;;;;;;;;;24.25;24.25;;;;;;;;5037887;28;8973;-82
2023/02/09 05:02:26;;;;;;;;;32.75;31.25;;;;;;;;5039289;28;8943;-83
2023/02/09 05:04:53;;;;;;;;;33.75;31.00;;;;;;;;5039781;28;9404;-81
2023/02/09 05:07:22;;;;;;;;;30.75;30.75;;;;;;;;5025896;28;8899;-82
2023/02/09 05:09:49;;;;;;;;;34.25;34.25;;;;;;;;5041721;28;8888;-82
2023/02/09 05:12:16;;;;;;;;;32.00;28.75;;;;;;;;5041079;28;8861;-82
2023/02/09 05:14:44;;;;;;;;;41.75;40.75;;;;;;;;5046872;28;8850;-83
2023/02/09 05:17:12;;;;;;;;;49.00;46.25;;;;;;;;5042528;28;8987;-81
2023/02/09 05:19:40;;;;;;;;;43.25;43.00;;;;;;;;5042948;28;9697;-82
2023/02/09 05:22:07;;;;;;;;;37.00;35.50;;;;;;;;5044377;28;9010;-82
2023/02/09 05:24:35;;;;;;;;;40.25;40.25;;;;;;;;5044527;28;8845;-82
2023/02/09 05:27:02;;;;;;;;;48.00;44.50;;;;;;;;5041644;28;8895;-83
2023/02/09 05:29:30;;;;;;;;;43.25;43.00;;;;;;;;5029245;28;8852;-82
2023/02/09 05:32:00;;;;;;;;;36.00;30.00;;;;;;;;5057188;28;8900;-83
2023/02/09 05:34:29;;;;;;;;;42.75;39.75;;;;;;;;5051045;28;8962;-83
2023/02/09 05:36:56;;;;;;;;;37.50;37.25;;;;;;;;5054718;28;8895;-82
2023/02/09 05:39:24;;;;;;;;;42.25;40.75;;;;;;;;5048181;28;8891;-83
2023/02/09 05:44:36;;;;;;;;;48.00;42.00;;;;;;;;5047766;28;8852;-83
2023/02/09 05:47:04;;;;;;;;;46.50;45.00;;;;;;;;5040925;28;8848;-82
2023/02/09 05:49:36;;;;;;;;;40.00;40.00;;;;;;;;5041394;28;8872;-82
2023/02/09 05:52:05;;;;;;;;;39.25;39.25;;;;;;;;5045845;28;8963;-83
2023/02/09 05:54:33;;;;;;;;;50.25;47.00;;;;;;;;5030761;28;8863;-83
2023/02/09 05:57:00;;;;;;;;;47.50;44.75;;;;;;;;5023337;28;8872;-74
2023/02/09 05:59:28;;;;;;;;;38.50;38.50;;;;;;;;5043078;28;8925;-75
2023/02/09 06:01:55;;;;;;;;;36.75;36.75;;;;;;;;5043830;28;8785;-74
2023/02/09 06:04:22;;;;;;;;;35.25;35.25;;;;;;;;5038868;28;8867;-74
2023/02/09 06:06:51;;;;;;;;;26.00;26.00;;;;;;;;5041134;28;8884;-73
2023/02/09 06:09:18;;;;;;;;;34.25;31.75;;;;;;;;5043314;28;8852;-73
2023/02/09 06:11:45;;;;;;;;;33.50;33.50;;;;;;;;5046799;28;8852;-73
2023/02/09 06:14:13;;;;;;;;;33.75;33.75;;;;;;;;5052538;28;9696;-73
2023/02/09 06:16:40;;;;;;;;;42.50;40.50;;;;;;;;5038603;28;8876;-75
2023/02/09 06:19:08;;;;;;;;;35.25;35.25;;;;;;;;5042559;28;8871;-75
2023/02/09 06:21:35;;;;;;;;;35.75;34.50;;;;;;;;5041988;28;8877;-73
2023/02/09 06:24:06;;;;;;;;;34.75;34.75;;;;;;;;5039258;28;8860;-74
2023/02/09 06:26:34;;;;;;;;;37.25;36.00;;;;;;;;5042348;28;9741;-75
2023/02/09 06:29:02;;;;;;;;;30.75;30.00;;;;;;;;5041186;28;8870;-75
2023/02/09 06:31:32;;;;;;;;;37.50;36.50;;;;;;;;5039843;28;8889;-74
2023/02/09 06:34:00;;;;;;;;;37.75;37.75;;;;;;;;5040977;28;8933;-74
2023/02/09 06:36:27;;;;;;;;;39.00;38.50;;;;;;;;5039615;28;8858;-74
2023/02/09 06:38:54;;;;;;;;;43.75;41.25;;;;;;;;5040802;28;8932;-73
2023/02/09 06:41:23;;;;;;;;;48.00;46.75;;;;;;;;5039442;28;8973;-76
2023/02/09 06:43:50;;;;;;;;;48.00;45.75;;;;;;;;5040463;28;8864;-73
2023/02/09 06:46:21;;;;;;;;;41.50;38.00;;;;;;;;5043768;28;8874;-73
2023/02/09 06:48:50;;;;;;;;;39.00;38.75;;;;;;;;5042104;28;8837;-73
2023/02/09 06:51:17;;;;;;;;;44.25;39.50;;;;;;;;5042600;28;8835;-74
2023/02/09 06:53:45;;;;;;;;;43.00;41.50;;;;;;;;5043114;28;8876;-74
2023/02/09 06:56:13;;;;;;;;;37.00;34.50;;;;;;;;5038889;28;8982;-74
2023/02/09 06:58:42;;;;;;;;;38.75;38.75;;;;;;;;5042309;28;8864;-74
2023/02/09 07:01:11;;;;;;;;;41.75;38.75;;;;;;;;5041804;28;8865;-72
2023/02/09 07:03:39;;;;;;;;;38.75;38.75;;;;;;;;5043574;28;9441;-71
2023/02/09 07:06:08;;;;;;;;;65.75;55.50;;;;;;;;5038817;28;8898;-71
2023/02/09 07:08:35;;;;;;;;;64.00;55.25;;;;;;;;5041277;28;9664;-71
2023/02/09 07:11:06;;;;;;;;;66.00;55.75;;;;;;;;5042797;28;8855;-71
2023/02/09 07:13:34;;;;;;;;;44.50;44.00;;;;;;;;5041517;28;8879;-71
2023/02/09 07:16:04;;;;;;;;;39.00;38.25;;;;;;;;5041627;28;8878;-71
2023/02/09 07:18:32;;;;;;;;;42.50;40.75;;;;;;;;5041062;28;8848;-72
2023/02/09 07:21:01;;;;;;;;;40.50;36.50;;;;;;;;5043832;28;9010;-73
2023/02/09 07:23:29;;;;;;;;;30.75;30.75;;;;;;;;5044211;28;8868;-75
2023/02/09 07:25:56;;;;;;;;;37.50;37.50;;;;;;;;5041735;28;9401;-73
2023/02/09 07:28:23;;;;;;;;;40.00;37.50;;;;;;;;5040249;28;8849;-73
2023/02/09 07:30:52;;;;;;;;;34.25;34.25;;;;;;;;5038710;28;8829;-74
2023/02/09 07:33:21;;;;;;;;;53.50;46.75;;;;;;;;5037668;28;8852;-72
2023/02/09 07:35:49;;;;;;;;;40.25;38.75;;;;;;;;5037077;28;8852;-73
2023/02/09 07:38:16;;;;;;;;;40.50;40.50;;;;;;;;5039625;28;8840;-70
2023/02/09 07:40:44;;;;;;;;;45.50;42.75;;;;;;;;5038032;28;8863;-70
2023/02/09 07:43:13;;;;;;;;;63.00;54.75;;;;;;;;5037786;28;8855;-70
2023/02/09 07:45:40;;;;;;;;;49.50;47.25;;;;;;;;5039381;28;9812;-70
2023/02/09 07:48:09;;;;;;;;;47.00;45.25;;;;;;;;5039166;28;8889;-70
2023/02/09 07:50:38;;;;;;;;;45.50;45.00;;;;;;;;5038253;28;8860;-70
2023/02/09 07:53:06;;;;;;;;;40.00;40.00;;;;;;;;5037890;28;8872;-70
2023/02/09 07:55:33;;;;;;;;;48.50;45.75;;;;;;;;5035399;28;8883;-70
2023/02/09 07:58:00;;;;;;;;;54.00;47.75;;;;;;;;5038437;28;8859;-71
2023/02/09 08:00:27;;;;;;;;;64.50;54.25;;;;;;;;5034330;28;8797;-70
2023/02/09 08:02:55;;;;;;;;;70.50;59.00;;;;;;;;5036008;28;8938;-71
2023/02/09 08:05:28;;;;;;;;;70.00;57.00;;;;;;;;5039345;28;8842;-71
2023/02/09 08:07:57;;;;;;;;;73.50;61.75;;;;;;;;5038130;28;8856;-73
2023/02/09 08:10:25;;;;;;;;;80.00;65.00;;;;;;;;5039492;28;8899;-71
2023/02/09 08:13:02;;;;;;;;;77.50;65.75;;;;;;;;5040631;28;8903;-72
2023/02/09 08:15:35;;;;;;;;;83.50;69.00;;;;;;;;5043659;28;8992;-70
2023/02/09 08:18:06;;;;;;;;;81.00;66.75;;;;;;;;5043850;28;8867;-72
2023/02/09 08:20:34;;;;;;;;;90.00;73.25;;;;;;;;5039314;28;9657;-71
2023/02/09 08:23:07;;;;;;;;;80.25;67.00;;;;;;;;5036273;28;8953;-72
2023/02/09 08:25:35;;;;;;;;;96.50;77.50;;;;;;;;5037070;28;8888;-72
2023/02/09 08:28:03;;;;;;;;;50.00;46.50;;;;;;;;5036237;28;8846;-73
2023/02/09 08:30:30;;;;;;;;;50.50;45.00;;;;;;;;5044318;28;9491;-72
2023/02/09 08:32:58;;;;;;;;;62.00;48.00;;;;;;;;5045387;28;9626;-72
2023/02/09 08:35:25;;;;;;;;;51.50;47.50;;;;;;;;5048559;28;8852;-73
2023/02/09 08:37:52;;;;;;;;;50.75;47.75;;;;;;;;5039732;28;8886;-73
2023/02/09 08:40:21;;;;;;;;;45.25;44.25;;;;;;;;5041296;28;8860;-73
2023/02/09 08:42:48;;;;;;;;;41.75;41.75;;;;;;;;5043685;28;9005;-75
2023/02/09 08:45:16;;;;;;;;;39.50;38.00;;;;;;;;5041136;28;8844;-73
2023/02/09 08:47:44;;;;;;;;;57.50;51.50;;;;;;;;5038873;28;8901;-72
2023/02/09 08:50:11;;;;;;;;;55.75;51.00;;;;;;;;5042105;28;8840;-72
2023/02/09 08:52:38;;;;;;;;;65.25;56.00;;;;;;;;5036339;28;8852;-73
2023/02/09 08:55:06;;;;;;;;;72.75;57.50;;;;;;;;5034887;28;8840;-73
2023/02/09 08:57:35;;;;;;;;;66.75;53.75;;;;;;;;5035797;28;9681;-76
2023/02/09 09:00:02;;;;;;;;;67.25;55.75;;;;;;;;5047442;28;8851;-75
2023/02/09 09:02:29;;;;;;;;;59.75;52.00;;;;;;;;5045772;28;8955;-73
2023/02/09 09:04:57;;;;;;;;;53.00;47.75;;;;;;;;5044050;28;8864;-71
2023/02/09 09:07:24;;;;;;;;;51.00;47.67;;;;;;;;5043152;28;8869;-76
2023/02/09 09:09:51;;;;;;;;;33.00;33.00;;;;;;;;5047503;28;9693;-78
2023/02/09 09:12:18;;;;;;;;;43.00;43.00;;;;;;;;5039907;28;8888;-76
2023/02/09 09:14:47;;;;;;;;;50.33;45.33;;;;;;;;5041304;28;8863;-76
2023/02/09 09:17:14;;;;;;;;;49.33;42.67;;;;;;;;5044089;28;8907;-75
2023/02/09 09:19:42;;;;;;;;;59.67;52.67;;;;;;;;5044872;28;8978;-79
2023/02/09 09:22:09;;;;;;;;;58.00;52.33;;;;;;;;5044810;28;8840;-75
2023/02/09 09:24:39;;;;;;;;;58.00;50.67;;;;;;;;5043415;28;8951;-74
2023/02/09 09:27:07;;;;;;;;;47.67;43.00;;;;;;;;5041991;28;8864;-73
2023/02/09 09:29:35;;;;;;;;;54.00;46.33;;;;;;;;5042650;28;8873;-74
2023/02/09 09:32:04;;;;;;;;;51.00;44.33;;;;;;;;5040742;28;8824;-72
2023/02/09 09:34:31;;;;;;;;;47.00;40.00;;;;;;;;5040491;28;9735;-75
2023/02/09 09:36:58;;;;;;;;;53.00;43.33;;;;;;;;5040851;28;9013;-74
2023/02/09 09:39:26;;;;;;;;;55.33;39.67;;;;;;;;5040085;28;8868;-73
2023/02/09 09:41:58;;;;;;;;;41.00;38.33;;;;;;;;5045666;28;8867;-72
2023/02/09 09:44:30;;;;;;;;;38.33;33.67;;;;;;;;5050892;28;8848;-72
2023/02/09 09:47:00;;;;;;;;;45.33;36.67;;;;;;;;5047502;28;8840;-72
2023/02/09 09:49:30;;;;;;;;;47.00;42.33;;;;;;;;5047252;28;8958;-72
2023/02/09 09:52:01;;;;;;;;;44.00;40.00;;;;;;;;5030257;28;8964;-72
2023/02/09 09:54:31;;;;;;;;;44.33;37.67;;;;;;;;5050394;28;8864;-72
2023/02/09 09:56:58;;;;;;;;;48.33;43.00;;;;;;;;5045303;28;8864;-72
2023/02/09 09:59:29;;;;;;;;;37.00;35.33;;;;;;;;5049608;28;8887;-72
2023/02/09 10:01:56;;;;;;;;;44.67;42.00;;;;;;;;5048337;28;8793;-72
2023/02/09 10:04:24;;;;;;;;;54.67;41.33;;;;;;;;5047998;28;8986;-72
2023/02/09 10:07:00;;;;;;;;;44.33;39.00;;;;;;;;5050331;28;8908;-72
2023/02/09 10:09:37;;;;;;;;;38.00;36.00;;;;;;;;5046864;28;8871;-72
2023/02/09 10:12:20;;;;;;;;;49.00;39.67;;;;;;;;5053534;28;8852;-72
2023/02/09 10:14:47;;;;;;;;;44.33;41.67;;;;;;;;5051400;28;9612;-72
2023/02/09 10:17:14;;;;;;;;;44.33;42.33;;;;;;;;5051200;28;9015;-72
2023/02/09 10:19:41;;;;;;;;;54.67;44.67;;;;;;;;5050640;28;8868;-72
2023/02/09 10:22:13;;;;;;;;;52.00;43.67;;;;;;;;5054108;28;8871;-73
2023/02/09 10:24:40;;;;;;;;;51.00;43.33;;;;;;;;5047291;28;8941;-73
2023/02/09 10:27:14;;;;;;;;;50.33;44.67;;;;;;;;5050715;28;9010;-73
2023/02/09 10:29:42;;;;;;;;;59.67;45.67;;;;;;;;5050345;28;8895;-73
2023/02/09 10:32:15;;;;;;;;;54.00;44.67;;;;;;;;5047080;28;8850;-73
2023/02/09 10:34:46;;;;;;;;;54.00;45.33;;;;;;;;5048171;28;8852;-73
2023/02/09 10:37:25;;;;;;;;;64.00;52.00;;;;;;;;5052723;28;8968;-73
2023/02/09 10:40:08;;;;;;;;;59.00;49.67;;;;;;;;5045162;28;9030;-73
2023/02/09 10:42:37;;;;;;;;;64.33;49.67;;;;;;;;5046201;28;8874;-72
2023/02/09 10:45:08;;;;;;;;;62.33;50.33;;;;;;;;5047381;28;8833;-72
2023/02/09 10:47:35;;;;;;;;;64.33;53.00;;;;;;;;5052026;28;11607;-73
2023/02/09 10:50:17;;;;;;;;;59.00;49.67;;;;;;;;5047062;28;11612;-73
2023/02/09 10:52:57;;;;;;;;;56.33;48.67;;;;;;;;5044581;28;11594;-73
2023/02/09 10:55:30;;;;;;;;;66.00;51.33;;;;;;;;5041657;28;11593;-73
2023/02/09 10:58:24;;;;;;;;;50.25;44.50;;;;;;;;5044016;28;11720;-75
2023/02/09 11:00:59;;;;;;;;;53.75;45.00;;;;;;;;5047518;28;11546;-75
2023/02/09 11:03:29;;;;;;;;;60.25;47.75;;;;;;;;5045104;28;11644;-75
2023/02/09 11:06:02;;;;;;;;;50.25;43.75;;;;;;;;5046630;28;11607;-73
2023/02/09 11:08:49;;;;;;;;;55.75;44.50;;;;;;;;5041995;28;11576;-74
2023/02/09 11:11:26;;;;;;;;;56.75;48.50;;;;;;;;5042437;28;12350;-73
2023/02/09 11:13:54;;;;;;;;;58.25;48.00;;;;;;;;5050450;28;11600;-73
2023/02/09 11:16:44;;;;;;;;;58.75;46.50;;;;;;;;5044413;28;11605;-73
2023/02/09 11:19:29;;;;;;;;;55.75;46.00;;;;;;;;5048657;28;11608;-75
2023/02/09 11:22:02;;;;;;;;;51.25;40.50;;;;;;;;5043729;28;11613;-75
2023/02/09 11:25:00;;;;;;;;;56.00;46.75;;;;;;;;5040426;28;11593;-76
2023/02/09 11:27:48;;;;;;;;;56.00;46.50;;;;;;;;5032634;28;11595;-76
2023/02/09 11:30:28;;;;;;;;;58.00;47.25;;;;;;;;5038747;28;11609;-75
2023/02/09 11:32:59;;;;;;;;;51.75;44.25;;;;;;;;5035802;28;11601;-75
2023/02/09 11:35:28;;;;;;;;;45.25;36.50;;;;;;;;5039639;28;11608;-76
2023/02/09 11:38:00;;;;;;;;;57.75;46.75;;;;;;;;5038371;28;11641;-75
2023/02/09 11:40:38;;;;;;;;;55.25;45.00;;;;;;;;5037485;28;12954;-77
2023/02/09 11:43:14;;;;;;;;;54.75;44.00;;;;;;;;5037623;28;11567;-75
2023/02/09 11:45:44;;;;;;;;;51.00;42.75;;;;;;;;5042063;28;11597;-75
2023/02/09 11:48:12;;;;;;;;;49.75;43.50;;;;;;;;5044230;28;11614;-75
2023/02/09 11:50:47;;;;;;;;;56.00;44.75;;;;;;;;5039104;28;11584;-74
2023/02/09 11:53:22;;;;;;;;;48.50;43.00;;;;;;;;5042479;28;12411;-75
2023/02/09 11:55:55;;;;;;;;;57.25;44.25;;;;;;;;5039219;28;11565;-75
2023/02/09 11:58:34;;;;;;;;;58.50;47.25;;;;;;;;5035934;28;11576;-74
2023/02/09 12:01:08;;;;;;;;;45.75;39.75;;;;;;;;5035646;28;11719;-75
2023/02/09 12:03:35;;;;;;;;;50.75;43.00;;;;;;;;5037490;28;11626;-73
2023/02/09 12:06:04;;;;;;;;;52.50;44.75;;;;;;;;5042035;28;11787;-75
2023/02/09 12:08:46;;;;;;;;;57.00;44.00;;;;;;;;5038761;28;11580;-73
2023/02/09 12:11:24;;;;;;;;;54.75;44.50;;;;;;;;5039355;28;11748;-73
2023/02/09 12:14:00;;;;;;;;;48.50;41.75;;;;;;;;5037665;28;11624;-73
2023/02/09 12:16:30;;;;;;;;;45.50;41.00;;;;;;;;5039049;28;11591;-72
2023/02/09 12:18:58;;;;;;;;;55.25;44.25;;;;;;;;5041950;28;11606;-71
2023/02/09 12:21:31;;;;;;;;;43.50;38.00;;;;;;;;5037381;28;11620;-72
2023/02/09 12:23:58;;;;;;;;;49.25;39.75;;;;;;;;5035840;28;11710;-71
2023/02/09 12:26:42;;;;;;;;;53.75;44.50;;;;;;;;5038664;28;11602;-73
2023/02/09 12:29:25;;;;;;;;;56.25;45.50;;;;;;;;5042963;28;11562;-71
2023/02/09 12:32:25;;;;;;;;;54.25;45.00;;;;;;;;5044563;28;11548;-72
2023/02/09 12:34:54;;;;;;;;;47.00;40.00;;;;;;;;5035735;28;11554;-74
2023/02/09 12:37:26;;;;;;;;;48.00;41.75;;;;;;;;5034031;28;12463;-72
2023/02/09 12:40:22;;;;;;;;;44.75;38.75;;;;;;;;5039200;28;11602;-71
2023/02/09 12:43:29;;;;;;;;;53.50;43.50;;;;;;;;4965145;28;11606;-75
2023/02/09 12:46:20;;;;;;;;;52.75;44.25;;;;;;;;5035877;28;12251;-73
2023/02/09 12:48:50;;;;;;;;;50.75;41.75;;;;;;;;5033525;28;12334;-73
2023/02/09 12:51:57;;;;;;;;;46.75;41.50;;;;;;;;5041340;28;11549;-72
2023/02/09 12:54:38;;;;;;;;;46.75;40.75;;;;;;;;5033472;28;11541;-73
2023/02/09 12:57:52;;;;;;;;;47.50;42.00;;;;;;;;5036466;28;11675;-73
2023/02/09 13:00:40;;;;;;;;;46.00;40.25;;;;;;;;5038611;28;11525;-73
2023/02/09 13:03:19;;;;;;;;;51.75;41.25;;;;;;;;5035230;28;11159;-73
2023/02/09 13:05:48;;;;;;;;;47.75;38.75;;;;;;;;5035968;28;11561;-72
2023/02/09 13:08:22;;;;;;;;;37.75;36.75;;;;;;;;5039015;28;11254;-72
2023/02/09 13:10:56;;;;;;;;;40.75;37.00;;;;;;;;5039634;28;11136;-72
2023/02/09 13:13:40;;;;;;;;;52.25;40.75;;;;;;;;5038545;28;11183;-73
2023/02/09 13:16:48;;;;;;;;;52.00;44.00;;;;;;;;5044957;28;11257;-72
2023/02/09 13:19:36;;;;;;;;;53.25;41.75;;;;;;;;5043369;28;11622;-73
2023/02/09 13:22:20;;;;;;;;;51.25;41.75;;;;;;;;5038731;28;11506;-72
2023/02/09 13:24:53;;;;;;;;;47.50;40.50;;;;;;;;5038357;28;11493;-74
2023/02/09 13:27:22;;;;;;;;;40.75;35.00;;;;;;;;5040990;28;11525;-73
2023/02/09 13:29:51;;;;;;;;;51.00;42.00;;;;;;;;5034954;28;11545;-73
2023/02/09 13:32:32;;;;;;;;;46.75;39.50;;;;;;;;5040858;28;11648;-74
2023/02/09 13:35:08;;;;;;;;;48.50;41.25;;;;;;;;5037145;28;11545;-73
2023/02/09 13:37:42;;;;;;;;;45.75;41.25;;;;;;;;5037157;28;11678;-74
2023/02/09 13:40:39;;;;;;;;;40.25;37.00;;;;;;;;5040645;28;11559;-74
2023/02/09 13:43:17;;;;;;;;;45.75;39.50;;;;;;;;5014439;28;11461;-75
2023/02/09 13:45:47;;;;;;;;;54.00;44.25;;;;;;;;5013187;28;11476;-74
2023/02/09 13:48:21;;;;;;;;;48.25;39.75;;;;;;;;5020261;28;11448;-76
2023/02/09 13:50:51;;;;;;;;;46.50;41.00;;;;;;;;5023455;28;12351;-74
2023/02/09 13:53:20;;;;;;;;;50.75;43.50;;;;;;;;5026453;28;11511;-74
2023/02/09 13:55:49;;;;;;;;;50.50;41.00;;;;;;;;5024511;28;12313;-73
2023/02/09 13:58:20;;;;;;;;;45.25;39.75;;;;;;;;5024462;28;11501;-73
2023/02/09 14:00:50;;;;;;;;;50.00;37.00;;;;;;;;5020965;28;11527;-78
2023/02/09 14:03:19;;;;;;;;;46.25;38.50;;;;;;;;5040502;28;11359;-72
2023/02/09 14:05:52;;;;;;;;;56.00;40.00;;;;;;;;5038759;28;11620;-78
2023/02/09 14:08:20;;;;;;;;;40.50;35.50;;;;;;;;5038321;28;11252;-77
2023/02/09 14:10:52;;;;;;;;;43.75;37.75;;;;;;;;5043298;28;11015;-74
2023/02/09 14:13:22;;;;;;;;;36.50;34.25;;;;;;;;5041461;28;11439;-71
2023/02/09 14:16:09;;;;;;;;;51.75;39.75;;;;;;;;5035656;28;11166;-74
2023/02/09 14:18:46;;;;;;;;;45.25;37.50;;;;;;;;5039137;28;12084;-73
2023/02/09 14:21:24;;;;;;;;;38.50;37.00;;;;;;;;5038876;28;11313;-75
2023/02/09 14:24:11;;;;;;;;;38.25;35.25;;;;;;;;5042559;28;11227;-81
2023/02/09 14:26:48;;;;;;;;;45.25;37.50;;;;;;;;5039900;28;11522;-78
2023/02/09 14:29:38;;;;;;;;;37.25;34.25;;;;;;;;5045455;28;11567;-75
2023/02/09 14:32:22;;;;;;;;;43.50;34.50;;;;;;;;4984407;28;11527;-77
2023/02/09 14:34:50;;;;;;;;;42.00;37.75;;;;;;;;4992266;28;11505;-78
2023/02/09 14:37:30;;;;;;;;;39.25;35.25;;;;;;;;4998928;28;11541;-76
2023/02/09 14:40:00;;;;;;;;;35.75;31.00;;;;;;;;5008223;28;12293;-76
2023/02/09 14:42:28;;;;;;;;;45.75;35.50;;;;;;;;5006085;28;11526;-75
2023/02/09 14:44:57;;;;;;;;;38.75;36.75;;;;;;;;5002650;28;11310;-74
2023/02/09 14:47:30;;;;;;;;;42.50;34.50;;;;;;;;5000581;28;11441;-74
2023/02/09 14:49:58;;;;;;;;;40.25;36.25;;;;;;;;4998910;28;11007;-74
2023/02/09 14:52:30;;;;;;;;;40.75;37.25;;;;;;;;4995640;28;11324;-74
2023/02/09 14:55:00;;;;;;;;;36.50;33.00;;;;;;;;5004542;28;12410;-74
2023/02/09 14:57:29;;;;;;;;;43.25;37.75;;;;;;;;5030970;28;11578;-75
2023/02/09 14:59:57;;;;;;;;;38.25;33.50;;;;;;;;5042398;28;11727;-76